createdAt,value
2024-03-02T00:01:47.719Z,101508.72
2024-03-02T00:04:16.110Z,101475.56
2024-03-02T00:06:44.130Z,101458.22
2024-03-02T00:09:13.831Z,101452.97
2024-03-02T00:11:41.986Z,101456.41
2024-03-02T00:14:10.423Z,101426.84
2024-03-02T00:16:38.320Z,101415.50
2024-03-02T00:19:09.307Z,101446.03
2024-03-02T00:21:37.631Z,101431.38
2024-03-02T00:24:19.787Z,101427.69
2024-03-02T00:26:48.097Z,101452.97
2024-03-02T00:29:18.457Z,101443.44
2024-03-02T00:31:46.634Z,101416.47
2024-03-02T00:34:17.503Z,101436.50
2024-03-02T00:36:46.084Z,101425.97
2024-03-02T00:39:15.073Z,101453.81
2024-03-02T00:41:44.418Z,101431.25
2024-03-02T00:44:15.322Z,101427.72
2024-03-02T00:46:45.009Z,101442.53
2024-03-02T00:49:24.300Z,101452.97
2024-03-02T00:51:54.362Z,101454.72
2024-03-02T00:54:25.339Z,101445.16
2024-03-02T00:56:53.649Z,101441.72
2024-03-02T00:59:21.545Z,101419.81
2024-03-02T01:01:52.516Z,101409.44
2024-03-02T01:04:21.876Z,101407.66
2024-03-02T01:06:50.154Z,101401.59
2024-03-02T01:09:19.264Z,101385.00
2024-03-02T01:11:47.573Z,101374.66
2024-03-02T01:14:15.507Z,101380.88
2024-03-02T01:16:43.446Z,101396.50
2024-03-02T01:19:12.166Z,101360.69
2024-03-02T01:21:41.725Z,101344.19
2024-03-02T01:24:09.901Z,101332.88
2024-03-02T01:26:37.708Z,101324.16
2024-03-02T01:29:06.357Z,101320.72
2024-03-02T01:31:34.323Z,101291.13
2024-03-02T01:34:02.936Z,101278.13
2024-03-02T01:36:31.085Z,101270.19
2024-03-02T01:39:00.328Z,101252.00
2024-03-02T01:41:29.180Z,101212.94
2024-03-02T01:43:57.213Z,101181.56
2024-03-02T01:46:26.088Z,101180.66
2024-03-02T01:48:54.001Z,101166.75
2024-03-02T01:51:22.584Z,101157.22
2024-03-02T01:53:50.696Z,101127.94
2024-03-02T01:56:19.975Z,101143.34
2024-03-02T01:58:47.976Z,101123.34
2024-03-02T02:01:17.166Z,101115.56
2024-03-02T02:03:46.121Z,101110.31
2024-03-02T02:06:14.640Z,101119.00
2024-03-02T02:08:42.609Z,101121.56
2024-03-02T02:11:10.610Z,101120.72
2024-03-02T02:13:39.949Z,101148.50
2024-03-02T02:16:08.814Z,101157.31
2024-03-02T02:18:37.112Z,101138.09
2024-03-02T02:21:05.798Z,101141.53
2024-03-02T02:23:35.307Z,101166.00
2024-03-02T02:26:04.945Z,101175.50
2024-03-02T02:28:32.869Z,101159.13
2024-03-02T02:31:01.564Z,101149.41
2024-03-02T02:33:30.119Z,101146.88
2024-03-02T02:35:58.025Z,101136.34
2024-03-02T02:38:25.939Z,101145.94
2024-03-02T02:40:55.214Z,101156.41
2024-03-02T02:43:23.279Z,101140.78
2024-03-02T02:45:51.190Z,101102.56
2024-03-02T02:48:19.244Z,101101.72
2024-03-02T02:50:47.188Z,101110.41
2024-03-02T02:53:15.583Z,101126.78
2024-03-02T02:55:44.676Z,101168.53
2024-03-02T02:58:14.217Z,101193.81
2024-03-02T03:00:42.806Z,101181.56
2024-03-02T03:03:10.759Z,101151.19
2024-03-02T03:05:38.588Z,101150.34
2024-03-02T03:08:06.682Z,101147.78
2024-03-02T03:10:34.621Z,101159.88
2024-03-02T03:13:02.644Z,101132.84
2024-03-02T03:15:31.945Z,101135.56
2024-03-02T03:17:59.881Z,101119.91
2024-03-02T03:20:27.771Z,101123.34
2024-03-02T03:22:55.640Z,101165.91
2024-03-02T03:25:23.555Z,101168.56
2024-03-02T03:27:53.052Z,101142.44
2024-03-02T03:30:21.143Z,101119.03
2024-03-02T03:32:50.288Z,101115.56
2024-03-02T03:35:19.662Z,101112.94
2024-03-02T03:37:47.548Z,101109.50
2024-03-02T03:40:15.608Z,101108.59
2024-03-02T03:42:44.003Z,101104.28
2024-03-02T03:45:12.111Z,101073.78
2024-03-02T03:47:40.037Z,101091.19
2024-03-02T03:50:10.237Z,101125.97
2024-03-02T03:52:38.197Z,101096.47
2024-03-02T03:55:07.544Z,101094.75
2024-03-02T03:57:35.687Z,101109.44
2024-03-02T04:00:03.703Z,101108.69
2024-03-02T04:02:31.472Z,101124.34
2024-03-02T04:04:59.398Z,101145.97
2024-03-02T04:07:28.665Z,101142.50
2024-03-02T04:09:56.635Z,101141.63
2024-03-02T04:12:24.772Z,101118.31
2024-03-02T04:14:52.808Z,101080.84
2024-03-02T04:17:20.617Z,101097.31
2024-03-02T04:19:48.411Z,101101.72
2024-03-02T04:22:21.639Z,101100.00
2024-03-02T04:24:54.814Z,101070.41
2024-03-02T04:27:22.873Z,101073.88
2024-03-02T04:29:50.884Z,101054.78
2024-03-02T04:32:20.727Z,101020.91
2024-03-02T04:34:48.574Z,100995.75
2024-03-02T04:37:16.619Z,100945.28
2024-03-02T04:39:44.663Z,100943.66
2024-03-02T04:42:13.914Z,100924.56
2024-03-02T04:44:41.776Z,100912.34
2024-03-02T04:47:09.628Z,100929.72
2024-03-02T04:49:37.565Z,100891.50
2024-03-02T04:52:06.209Z,100896.72
2024-03-02T04:54:36.095Z,100913.22
2024-03-02T04:57:03.975Z,100916.69
2024-03-02T04:59:33.161Z,100893.28
2024-03-02T05:02:01.442Z,100875.91
2024-03-02T05:04:29.230Z,100909.84
2024-03-02T05:06:59.168Z,100928.88
2024-03-02T05:09:27.042Z,100940.13
2024-03-02T05:12:12.995Z,100979.25
2024-03-02T05:14:42.189Z,100941.84
2024-03-02T05:17:10.034Z,100941.84
2024-03-02T05:19:37.864Z,100940.16
2024-03-02T05:22:06.841Z,100945.28
2024-03-02T05:24:35.235Z,100937.59
2024-03-02T05:27:03.124Z,100926.19
2024-03-02T05:29:30.990Z,100923.66
2024-03-02T05:32:00.139Z,100923.66
2024-03-02T05:34:28.031Z,100897.63
2024-03-02T05:36:55.919Z,100887.28
2024-03-02T05:39:23.831Z,100890.69
2024-03-02T05:41:51.684Z,100887.16
2024-03-02T05:44:20.545Z,100908.06
2024-03-02T05:46:48.377Z,100935.84
2024-03-02T05:49:17.601Z,100963.59
2024-03-02T05:51:45.498Z,100987.06
2024-03-02T05:54:13.642Z,100994.06
2024-03-02T05:56:42.154Z,100998.31
2024-03-02T05:59:13.912Z,101013.97
2024-03-02T06:01:42.286Z,101009.72
2024-03-02T06:04:12.115Z,101055.69
2024-03-02T06:06:41.490Z,101071.41
2024-03-02T06:09:09.914Z,101086.09
2024-03-02T06:11:37.842Z,101116.50
2024-03-02T06:14:07.100Z,101119.13
2024-03-02T06:16:36.228Z,101120.00
2024-03-02T06:19:04.627Z,101171.25
2024-03-02T06:21:32.477Z,101156.50
2024-03-02T06:24:02.309Z,101181.66
2024-03-02T06:26:30.869Z,101202.59
2024-03-02T06:28:58.746Z,101221.69
2024-03-02T06:31:26.575Z,101269.53
2024-03-02T06:33:54.419Z,101292.13
2024-03-02T06:36:22.410Z,101333.00
2024-03-02T06:38:50.218Z,101343.53
2024-03-02T06:41:19.389Z,101366.13
2024-03-02T06:43:48.196Z,101377.44
2024-03-02T06:46:16.468Z,101399.25
2024-03-02T06:48:44.643Z,101427.94
2024-03-02T06:51:12.817Z,101460.13
2024-03-02T06:53:40.604Z,101481.09
2024-03-02T06:56:10.600Z,101499.31
2024-03-02T06:58:39.880Z,101535.97
2024-03-02T07:01:07.729Z,101536.78
2024-03-02T07:03:35.717Z,101556.03
2024-03-02T07:06:04.136Z,101572.50
2024-03-02T07:08:31.956Z,101593.47
2024-03-02T07:10:59.844Z,101623.97
2024-03-02T07:13:27.973Z,101669.25
2024-03-02T07:16:23.937Z,101653.66
2024-03-02T07:18:53.542Z,101700.66
2024-03-02T07:21:23.377Z,101716.47
2024-03-02T07:23:51.699Z,101732.09
2024-03-02T07:28:51.265Z,101763.47
2024-03-02T07:31:20.443Z,101767.81
2024-03-02T07:33:48.585Z,101783.66
2024-03-02T07:36:16.844Z,101814.09
2024-03-02T07:38:45.950Z,101826.28
2024-03-02T07:41:14.447Z,101833.28
2024-03-02T07:43:42.346Z,101841.06
2024-03-02T07:46:10.273Z,101862.09
2024-03-02T07:48:40.207Z,101880.44
2024-03-02T07:51:08.077Z,101890.81
2024-03-02T07:53:35.884Z,101905.78
2024-03-02T07:56:04.210Z,101901.38
2024-03-02T07:58:32.833Z,101904.00
2024-03-02T08:01:02.639Z,101952.88
2024-03-02T08:03:30.749Z,101929.28
2024-03-02T08:06:00.083Z,101949.47
2024-03-02T08:08:28.018Z,101952.88
2024-03-02T08:13:23.630Z,101987.00
2024-03-02T08:15:51.646Z,102008.78
2024-03-02T08:18:20.428Z,102019.25
2024-03-02T08:20:48.410Z,102016.72
2024-03-02T08:23:17.647Z,101989.63
2024-03-02T08:25:46.077Z,102003.56
2024-03-02T08:28:14.045Z,101991.31
2024-03-02T08:30:42.011Z,101972.16
2024-03-02T08:33:09.929Z,101991.34
2024-03-02T08:35:37.763Z,101968.63
2024-03-02T08:38:06.615Z,101959.06
2024-03-02T08:40:35.808Z,101925.81
2024-03-02T08:43:03.832Z,101938.97
2024-03-02T08:45:31.805Z,101954.69
2024-03-02T08:47:59.762Z,101970.34
2024-03-02T08:50:28.033Z,101952.06
2024-03-02T08:52:55.862Z,101941.56
2024-03-02T08:55:23.721Z,101964.28
2024-03-02T08:57:53.101Z,101943.28
2024-03-02T09:00:21.641Z,101924.09
2024-03-02T09:02:49.657Z,101908.38
2024-03-02T09:05:17.619Z,101898.78
2024-03-02T09:07:45.477Z,101888.28
2024-03-02T09:10:13.632Z,101904.03
2024-03-02T09:12:42.204Z,101887.41
2024-03-02T09:15:11.866Z,101895.28
2024-03-02T09:17:39.782Z,101905.72
2024-03-02T09:20:08.582Z,101927.56
2024-03-02T09:22:36.420Z,101958.19
2024-03-02T09:25:04.510Z,101961.72
2024-03-02T09:27:32.439Z,101993.09
2024-03-02T09:30:00.239Z,102009.72
2024-03-02T09:32:30.088Z,102001.81
2024-03-02T09:34:59.689Z,102026.28
2024-03-02T09:37:27.923Z,102010.56
2024-03-02T09:39:56.089Z,102060.50
2024-03-02T09:42:24.967Z,102075.25
2024-03-02T09:44:53.149Z,102160.03
2024-03-02T09:47:21.103Z,102224.75
2024-03-02T09:49:50.910Z,102296.41
2024-03-02T09:52:18.707Z,102377.88
2024-03-02T09:54:46.589Z,102393.63
2024-03-02T09:57:14.479Z,102391.94
2024-03-02T09:59:42.300Z,102383.09
2024-03-02T10:02:10.165Z,102396.25
2024-03-02T10:04:37.979Z,102384.84
2024-03-02T10:07:15.226Z,102410.19
2024-03-02T10:09:43.990Z,102362.97
2024-03-02T10:12:13.413Z,102344.59
2024-03-02T10:14:41.849Z,102328.91
2024-03-02T10:17:11.055Z,102335.88
2024-03-02T10:19:40.087Z,102308.72
2024-03-02T10:22:09.601Z,102291.25
2024-03-02T10:24:40.360Z,102298.25
2024-03-02T10:27:12.243Z,102293.81
2024-03-02T10:29:42.878Z,102294.72
2024-03-02T10:32:12.254Z,102292.09
2024-03-02T10:34:42.229Z,102230.03
2024-03-02T10:37:10.684Z,102190.69
2024-03-02T10:39:41.171Z,102209.91
2024-03-02T10:42:10.154Z,102190.66
2024-03-02T10:44:38.080Z,102214.28
2024-03-02T10:47:07.205Z,102198.56
2024-03-02T10:49:36.087Z,102203.81
2024-03-02T10:52:05.101Z,102197.69
2024-03-02T10:54:38.118Z,102189.78
2024-03-02T10:57:10.776Z,102171.41
2024-03-02T10:59:41.132Z,102225.66
2024-03-02T11:02:13.207Z,102196.78
2024-03-02T11:04:42.938Z,102217.78
2024-03-02T11:07:13.116Z,102216.97
2024-03-02T11:09:43.963Z,102190.66
2024-03-02T11:12:19.506Z,102196.00
2024-03-02T11:14:47.423Z,102270.22
2024-03-02T11:17:17.834Z,102272.81
2024-03-02T11:19:47.389Z,102260.59
2024-03-02T11:22:16.955Z,102245.78
2024-03-02T11:24:50.820Z,102277.25
2024-03-02T11:28:01.525Z,102248.38
2024-03-02T11:30:52.238Z,102230.03
2024-03-02T11:33:32.568Z,102243.13
2024-03-02T11:36:01.034Z,102230.94
2024-03-02T11:38:35.909Z,102258.00
2024-03-02T11:41:05.406Z,102231.78
2024-03-02T11:43:34.872Z,102263.22
2024-03-02T11:46:05.703Z,102327.16
2024-03-02T11:48:34.184Z,102308.75
2024-03-02T11:51:02.833Z,102254.53
2024-03-02T11:53:33.166Z,102323.59
2024-03-02T11:56:04.086Z,102341.13
2024-03-02T11:58:32.478Z,102291.19
2024-03-02T12:01:01.824Z,102282.47
2024-03-02T12:03:30.363Z,102283.34
2024-03-02T12:05:58.448Z,102278.97
2024-03-02T12:08:26.991Z,102292.13
2024-03-02T12:11:01.934Z,102251.00
2024-03-02T12:13:30.195Z,102168.81
2024-03-02T12:15:58.618Z,102219.56
2024-03-02T12:18:28.248Z,102216.91
2024-03-02T12:20:58.843Z,102202.94
2024-03-02T12:23:28.077Z,102178.41
2024-03-02T12:25:56.490Z,102163.56
2024-03-02T12:28:24.364Z,102123.44
2024-03-02T12:30:53.033Z,102139.97
2024-03-02T12:33:22.315Z,102181.06
2024-03-02T12:35:52.640Z,102175.75
2024-03-02T12:38:20.870Z,102154.84
2024-03-02T12:40:51.001Z,102147.84
2024-03-02T12:43:18.985Z,102164.47
2024-03-02T12:45:47.304Z,102130.31
2024-03-02T12:48:16.007Z,102092.72
2024-03-02T12:50:45.345Z,102087.53
2024-03-02T12:53:18.496Z,102080.53
2024-03-02T12:55:46.751Z,102109.41
2024-03-02T12:58:19.538Z,102097.13
2024-03-02T13:00:47.637Z,102123.28
2024-03-02T13:03:16.683Z,102130.28
2024-03-02T13:05:45.322Z,102116.34
2024-03-02T13:08:13.992Z,102126.78
2024-03-02T13:10:43.469Z,102119.03
2024-03-02T13:13:11.462Z,102076.97
2024-03-02T13:15:40.354Z,102102.34
2024-03-02T13:18:10.507Z,102075.28
2024-03-02T13:20:38.399Z,102092.72
2024-03-02T13:23:06.328Z,102047.31
2024-03-02T13:25:34.435Z,102001.00
2024-03-02T13:28:04.344Z,101978.28
2024-03-02T13:30:32.321Z,102013.19
2024-03-02T13:33:00.172Z,102019.31
2024-03-02T13:35:28.061Z,102021.97
2024-03-02T13:37:55.872Z,102055.13
2024-03-02T13:40:24.732Z,102046.41
2024-03-02T13:42:54.915Z,102085.72
2024-03-02T13:45:24.273Z,102047.34
2024-03-02T13:47:53.289Z,102035.03
2024-03-02T13:50:21.607Z,102038.53
2024-03-02T13:52:49.436Z,102047.28
2024-03-02T13:55:17.301Z,102018.47
2024-03-02T13:57:45.204Z,101992.25
2024-03-02T14:00:14.374Z,101983.53
2024-03-02T14:02:43.762Z,101931.13
2024-03-02T14:05:12.921Z,101931.09
2024-03-02T14:07:41.011Z,101926.69
2024-03-02T14:10:09.522Z,101906.63
2024-03-02T14:12:38.681Z,101905.78
2024-03-02T14:15:07.761Z,101877.81
2024-03-02T14:17:36.277Z,101916.28
2024-03-02T14:20:11.440Z,101924.09
2024-03-02T14:22:39.410Z,101931.88
2024-03-02T14:25:07.881Z,101940.69
2024-03-02T14:27:50.871Z,101933.69
2024-03-02T14:30:24.489Z,101936.38
2024-03-02T14:32:52.501Z,101970.38
2024-03-02T14:35:23.906Z,101950.38
2024-03-02T14:37:51.960Z,101878.72
2024-03-02T14:40:19.850Z,101892.63
2024-03-02T14:42:49.422Z,101928.47
2024-03-02T14:45:17.642Z,101908.38
2024-03-02T14:47:45.828Z,101893.53
2024-03-02T14:50:13.985Z,101852.53
2024-03-02T14:52:46.004Z,101835.09
2024-03-02T14:55:14.267Z,101817.59
2024-03-02T14:57:42.214Z,101780.97
2024-03-02T15:00:12.867Z,101804.50
2024-03-02T15:02:40.765Z,101790.56
2024-03-02T15:05:09.571Z,101793.16
2024-03-02T15:07:37.494Z,101789.72
2024-03-02T15:10:08.217Z,101768.78
2024-03-02T15:12:36.277Z,101774.06
2024-03-02T15:15:04.772Z,101779.31
2024-03-02T15:17:32.799Z,101779.25
2024-03-02T15:20:00.621Z,101821.97
2024-03-02T15:22:30.493Z,101805.41
2024-03-02T15:24:58.360Z,101793.22
2024-03-02T15:27:28.536Z,101769.66
2024-03-02T15:29:58.463Z,101753.94
2024-03-02T15:32:27.817Z,101796.66
2024-03-02T15:34:55.806Z,101766.19
2024-03-02T15:37:24.003Z,101777.50
2024-03-02T15:39:51.891Z,101759.16
2024-03-02T15:42:20.221Z,101762.69
2024-03-02T15:44:49.426Z,101759.97
2024-03-02T15:47:17.493Z,101766.16
2024-03-02T15:49:45.707Z,101761.78
2024-03-02T15:52:17.046Z,101738.19
2024-03-02T15:54:44.865Z,101745.16
2024-03-02T15:57:12.865Z,101749.63
2024-03-02T15:59:40.741Z,101740.81
2024-03-02T16:02:10.019Z,101736.53
2024-03-02T16:04:37.913Z,101743.47
2024-03-02T16:07:06.133Z,101737.34
2024-03-02T16:09:34.053Z,101725.19
2024-03-02T16:12:01.990Z,101710.31
2024-03-02T16:14:29.868Z,101679.72
2024-03-02T16:16:58.477Z,101665.91
2024-03-02T16:19:32.941Z,101664.09
2024-03-02T16:22:01.662Z,101629.31
2024-03-02T16:24:29.609Z,101634.50
2024-03-02T16:26:57.505Z,101624.06
2024-03-02T16:29:25.327Z,101633.63
2024-03-02T16:31:53.202Z,101634.53
2024-03-02T16:34:21.062Z,101645.81
2024-03-02T16:36:50.802Z,101650.22
2024-03-02T16:39:20.444Z,101632.78
2024-03-02T16:41:48.689Z,101638.03
2024-03-02T16:44:17.576Z,101664.09
2024-03-02T16:46:46.436Z,101652.75
2024-03-02T16:49:14.536Z,101677.13
2024-03-02T16:51:42.757Z,101680.63
2024-03-02T16:54:12.300Z,101673.69
2024-03-02T16:56:40.657Z,101685.03
2024-03-02T16:59:08.919Z,101650.13
2024-03-02T17:01:38.071Z,101660.66
2024-03-02T17:04:07.562Z,101638.09
2024-03-02T17:06:35.737Z,101646.66
2024-03-02T17:09:03.664Z,101634.50
2024-03-02T17:11:32.994Z,101630.97
2024-03-02T17:14:01.011Z,101635.31
2024-03-02T17:16:28.905Z,101647.53
2024-03-02T17:18:56.914Z,101627.50
2024-03-02T17:21:26.288Z,101637.13
2024-03-02T17:23:54.192Z,101635.31
2024-03-02T17:26:22.226Z,101618.78
2024-03-02T17:28:51.584Z,101619.75
2024-03-02T17:31:19.413Z,101617.06
2024-03-02T17:33:47.772Z,101608.31
2024-03-02T17:36:15.912Z,101606.53
2024-03-02T17:38:44.014Z,101623.09
2024-03-02T17:41:12.365Z,101627.59
2024-03-02T17:43:40.584Z,101650.13
2024-03-02T17:46:09.895Z,101642.28
2024-03-02T17:48:37.872Z,101619.66
2024-03-02T17:51:09.081Z,101618.78
2024-03-02T17:53:37.243Z,101622.19
2024-03-02T17:56:05.803Z,101622.34
2024-03-02T17:58:34.677Z,101621.34
2024-03-02T18:01:02.764Z,101623.97
2024-03-02T18:03:32.198Z,101648.34
2024-03-02T18:06:00.125Z,101650.13
2024-03-02T18:08:28.088Z,101648.41
2024-03-02T18:10:56.412Z,101643.22
2024-03-02T18:13:24.543Z,101648.53
2024-03-02T18:15:52.819Z,101650.16
2024-03-02T18:18:21.030Z,101662.38
2024-03-02T18:20:50.887Z,101631.91
2024-03-02T18:23:18.737Z,101651.84
2024-03-02T18:25:48.506Z,101652.75
2024-03-02T18:28:16.610Z,101655.38
2024-03-02T18:30:44.572Z,101654.53
2024-03-02T18:33:12.516Z,101616.13
2024-03-02T18:35:40.369Z,101623.09
2024-03-02T18:38:09.509Z,101653.56
2024-03-02T18:40:37.383Z,101662.38
2024-03-02T18:43:05.927Z,101648.41
2024-03-02T18:45:33.946Z,101635.41
2024-03-02T18:48:04.051Z,101636.22
2024-03-02T18:50:34.194Z,101638.81
2024-03-02T18:53:02.127Z,101650.13
2024-03-02T18:55:31.312Z,101634.50
2024-03-02T18:57:59.274Z,101666.69
2024-03-02T19:00:27.262Z,101665.88
2024-03-02T19:02:55.125Z,101672.81
2024-03-02T19:05:22.997Z,101660.53
2024-03-02T19:07:50.841Z,101657.13
2024-03-02T19:10:19.111Z,101663.28
2024-03-02T19:12:50.385Z,101650.13
2024-03-02T19:15:23.115Z,101645.75
2024-03-02T19:17:50.981Z,101649.25
2024-03-02T19:20:18.803Z,101657.13
2024-03-02T19:22:47.396Z,101644.06
2024-03-02T19:25:15.941Z,101657.97
2024-03-02T19:27:43.841Z,101633.56
2024-03-02T19:30:14.433Z,101637.13
2024-03-02T19:32:42.471Z,101648.41
2024-03-02T19:35:13.039Z,101660.59
2024-03-02T19:37:42.278Z,101641.44
2024-03-02T19:40:11.145Z,101633.63
2024-03-02T19:42:39.305Z,101630.97
2024-03-02T19:45:08.200Z,101640.59
2024-03-02T19:47:37.500Z,101629.25
2024-03-02T19:50:06.470Z,101621.38
2024-03-02T19:52:34.469Z,101607.63
2024-03-02T19:55:03.004Z,101629.28
2024-03-02T19:57:31.837Z,101649.31
2024-03-02T19:59:59.766Z,101647.53
2024-03-02T20:02:28.159Z,101659.78
2024-03-02T20:04:58.535Z,101660.56
2024-03-02T20:07:26.389Z,101653.63
2024-03-02T20:09:54.414Z,101639.69
2024-03-02T20:12:22.392Z,101634.50
2024-03-02T20:14:50.264Z,101641.41
2024-03-02T20:17:18.133Z,101655.38
2024-03-02T20:19:46.277Z,101630.97
2024-03-02T20:22:16.319Z,101633.50
2024-03-02T20:24:44.294Z,101623.97
2024-03-02T20:27:12.374Z,101625.69
2024-03-02T20:29:40.242Z,101619.63
2024-03-02T20:32:08.879Z,101630.09
2024-03-02T20:34:36.880Z,101623.97
2024-03-02T20:37:05.480Z,101655.38
2024-03-02T20:39:34.858Z,101630.09
2024-03-02T20:42:02.737Z,101623.97
2024-03-02T20:44:30.594Z,101615.31
2024-03-02T20:46:58.464Z,101621.38
2024-03-02T20:49:26.900Z,101613.53
2024-03-02T20:51:54.843Z,101610.06
2024-03-02T20:54:22.713Z,101620.53
2024-03-02T20:56:52.989Z,101603.16
2024-03-02T20:59:20.856Z,101615.34
2024-03-02T21:01:49.388Z,101596.19
2024-03-02T21:04:17.394Z,101593.56
2024-03-02T21:06:45.600Z,101576.91
2024-03-02T21:09:13.512Z,101570.81
2024-03-02T21:11:41.887Z,101577.00
2024-03-02T21:14:11.145Z,101602.22
2024-03-02T21:16:41.251Z,101572.50
2024-03-02T21:19:09.593Z,101591.78
2024-03-02T21:21:39.798Z,101589.13
2024-03-02T21:24:08.092Z,101599.59
2024-03-02T21:26:39.826Z,101586.53
2024-03-02T21:29:07.751Z,101587.38
2024-03-02T21:31:36.973Z,101590.97
2024-03-02T21:34:05.359Z,101594.38
2024-03-02T21:36:33.881Z,101598.72
2024-03-02T21:39:05.318Z,101592.66
2024-03-02T21:41:33.747Z,101624.88
2024-03-02T21:44:01.673Z,101625.78
2024-03-02T21:46:29.599Z,101594.38
2024-03-02T21:48:58.886Z,101596.97
2024-03-02T21:51:29.560Z,101600.47
2024-03-02T21:53:59.329Z,101597.97
2024-03-02T21:56:27.282Z,101604.84
2024-03-02T21:58:55.324Z,101597.00
2024-03-02T22:01:23.366Z,101573.47
2024-03-02T22:03:51.292Z,101559.53
2024-03-02T22:06:20.452Z,101560.38
2024-03-02T22:08:48.276Z,101550.78
2024-03-02T22:11:16.168Z,101569.91
2024-03-02T22:13:46.010Z,101586.53
2024-03-02T22:16:13.962Z,101581.25
2024-03-02T22:18:41.930Z,101599.63
2024-03-02T22:21:09.977Z,101581.31
2024-03-02T22:23:40.371Z,101588.31
2024-03-02T22:26:08.159Z,101582.19
2024-03-02T22:28:35.945Z,101579.50
2024-03-02T22:31:03.813Z,101536.94
2024-03-02T22:33:31.649Z,101545.56
2024-03-02T22:35:59.462Z,101543.81
2024-03-02T22:38:27.284Z,101537.84
2024-03-02T22:40:56.448Z,101535.97
2024-03-02T22:43:24.367Z,101534.28
2024-03-02T22:45:52.611Z,101509.03
2024-03-02T22:48:20.470Z,101509.78
2024-03-02T22:50:48.317Z,101501.13
2024-03-02T22:53:16.423Z,101488.06
2024-03-02T22:55:44.308Z,101470.72
2024-03-02T22:58:13.576Z,101480.22
2024-03-02T23:00:49.315Z,101475.00
2024-03-02T23:03:19.254Z,101438.41
2024-03-02T23:05:47.275Z,101436.72
2024-03-02T23:08:15.203Z,101435.78
2024-03-02T23:10:43.260Z,101449.72
2024-03-02T23:13:11.237Z,101452.34
2024-03-02T23:15:40.807Z,101479.34
2024-03-02T23:18:08.705Z,101473.34
2024-03-02T23:20:36.762Z,101496.78
2024-03-02T23:23:05.946Z,101495.06
2024-03-02T23:25:33.996Z,101504.59
2024-03-02T23:28:02.215Z,101494.97
2024-03-02T23:30:30.792Z,101515.91
2024-03-02T23:33:00.189Z,101525.50
2024-03-02T23:35:28.074Z,101507.25
2024-03-02T23:37:55.960Z,101488.06
2024-03-02T23:40:45.926Z,101477.63
2024-03-02T23:43:14.480Z,101484.53
2024-03-02T23:45:42.372Z,101476.88
2024-03-02T23:48:12.136Z,101493.25
2024-03-02T23:50:40.097Z,101495.06
2024-03-02T23:53:07.929Z,101493.25
2024-03-02T23:55:46.545Z,101475.91
2024-03-02T23:58:19.695Z,101473.22
